Time;durP1;ratioP1;P1;durP2;ratioP2;P2;SDS_P1;SDS_P2;PMS_P1;PMS_P2;Temp;Humidity;BMP_temperature;BMP_pressure;BME280_temperature;BME280_humidity;BME280_pressure;Samples;Min_cycle;Max_cycle;Signal;HPM_P1;HPM_P2
2023/08/10 00:04:05;;;;;;;4.20;2.85;;;14.30;99.90;;;;;;10171459;29;20264;-86
2023/08/10 00:09:08;;;;;;;4.57;2.58;;;14.60;99.90;;;;;;10162004;29;20311;-86
2023/08/10 00:14:10;;;;;;;3.33;2.38;;;14.80;99.90;;;;;;10171852;29;20276;-86
2023/08/10 00:19:13;;;;;;;5.68;2.72;;;14.70;99.90;;;;;;10166137;29;20239;-86
2023/08/10 00:24:16;;;;;;;4.35;3.53;;;14.60;99.90;;;;;;10153655;29;20303;-86
2023/08/10 00:29:18;;;;;;;4.75;3.13;;;14.50;99.90;;;;;;10170887;29;20231;-86
2023/08/10 00:34:21;;;;;;;5.70;3.15;;;14.30;99.90;;;;;;10168885;29;20231;-86
2023/08/10 00:39:24;;;;;;;6.57;3.17;;;14.30;99.90;;;;;;10153440;29;20275;-86
2023/08/10 00:44:26;;;;;;;7.50;3.17;;;14.20;99.90;;;;;;10150791;29;20243;-86
2023/08/10 00:49:31;;;;;;;6.50;3.42;;;14.00;99.90;;;;;;10158944;29;20235;-86
2023/08/10 00:54:34;;;;;;;3.45;2.58;;;13.80;99.90;;;;;;10169990;29;20532;-86
2023/08/10 00:59:38;;;;;;;3.22;2.58;;;13.70;99.90;;;;;;10152439;29;20235;-86
2023/08/10 01:04:42;;;;;;;4.85;3.05;;;13.70;99.90;;;;;;10152577;29;20247;-86
2023/08/10 01:09:57;;;;;;;4.63;3.20;;;13.60;99.90;;;;;;10151495;29;20255;-86
2023/08/10 01:15:13;;;;;;;6.63;3.65;;;13.10;99.90;;;;;;10152724;29;20283;-86
2023/08/10 01:20:18;;;;;;;4.65;3.13;;;12.60;99.90;;;;;;10167909;29;20227;-85
2023/08/10 01:25:23;;;;;;;5.45;3.97;;;12.40;99.90;;;;;;10169217;29;20239;-86
2023/08/10 01:30:26;;;;;;;7.28;3.97;;;12.10;99.90;;;;;;10150102;29;20239;-86
2023/08/10 01:35:30;;;;;;;3.58;2.60;;;12.00;99.90;;;;;;10167796;29;20263;-86
2023/08/10 01:40:32;;;;;;;6.05;3.67;;;11.90;99.90;;;;;;10166525;29;20318;-86
2023/08/10 01:45:35;;;;;;;6.32;3.83;;;11.80;99.90;;;;;;10150720;29;20246;-86
2023/08/10 01:50:44;;;;;;;5.65;3.30;;;11.90;99.90;;;;;;10166508;29;20327;-86
2023/08/10 01:55:46;;;;;;;2.38;2.17;;;11.70;99.90;;;;;;10167997;29;20675;-86
2023/08/10 02:00:51;;;;;;;7.68;3.45;;;11.70;99.90;;;;;;10150120;29;20624;-86
2023/08/10 02:05:53;;;;;;;3.63;3.28;;;11.70;99.90;;;;;;10167907;29;20248;-86
2023/08/10 02:10:56;;;;;;;7.78;4.32;;;11.50;99.90;;;;;;10166058;29;20254;-86
2023/08/10 02:15:59;;;;;;;5.75;3.53;;;11.40;99.90;;;;;;10167741;29;20302;-86
2023/08/10 02:21:02;;;;;;;3.45;3.13;;;11.40;99.90;;;;;;10167139;29;20260;-86
2023/08/10 02:26:05;;;;;;;5.32;3.40;;;11.30;99.90;;;;;;10186621;29;20242;-86
2023/08/10 02:31:08;;;;;;;6.18;3.45;;;11.20;99.90;;;;;;10177026;29;20255;-86
2023/08/10 02:36:10;;;;;;;4.80;4.15;;;11.00;99.90;;;;;;10166656;29;20254;-86
2023/08/10 02:41:13;;;;;;;4.50;2.75;;;10.90;99.90;;;;;;10165524;29;20678;-86
2023/08/10 02:46:15;;;;;;;5.20;2.70;;;10.90;99.90;;;;;;10148685;29;20243;-86
2023/08/10 02:51:18;;;;;;;4.00;2.42;;;11.00;99.90;;;;;;10165708;29;20693;-86
2023/08/10 02:56:21;;;;;;;8.40;3.97;;;11.10;99.90;;;;;;10149048;29;20266;-86
2023/08/10 03:01:23;;;;;;;6.45;3.92;;;11.00;99.90;;;;;;10165426;29;20216;-86
2023/08/10 03:06:28;;;;;;;7.18;4.53;;;10.80;99.90;;;;;;10164021;29;20698;-86
2023/08/10 03:11:31;;;;;;;8.10;4.60;;;10.70;99.90;;;;;;10166701;29;20306;-86
2023/08/10 03:16:33;;;;;;;11.02;5.43;;;10.70;99.90;;;;;;10147935;29;20645;-86
2023/08/10 03:21:37;;;;;;;7.35;4.70;;;10.60;99.90;;;;;;10164282;29;20235;-86
2023/08/10 03:26:39;;;;;;;4.78;4.00;;;10.50;99.90;;;;;;10154390;29;20270;-86
2023/08/10 03:31:42;;;;;;;17.02;5.50;;;10.50;99.90;;;;;;10162202;29;20243;-86
2023/08/10 03:36:46;;;;;;;7.70;3.88;;;10.40;99.90;;;;;;10163472;29;20271;-86
2023/08/10 03:41:49;;;;;;;11.88;6.65;;;10.70;99.90;;;;;;10149542;29;20689;-86
2023/08/10 03:46:53;;;;;;;10.57;5.45;;;11.10;99.90;;;;;;10163957;29;20239;-86
2023/08/10 03:51:57;;;;;;;10.68;6.47;;;10.80;99.90;;;;;;10167144;29;20330;-86
2023/08/10 03:57:00;;;;;;;6.63;5.15;;;10.70;99.90;;;;;;10156838;29;20255;-86
2023/08/10 04:02:02;;;;;;;8.18;5.78;;;10.80;99.90;;;;;;10155310;29;20746;-86
2023/08/10 04:07:07;;;;;;;13.90;5.88;;;10.70;99.90;;;;;;10170297;29;20307;-86
2023/08/10 04:12:10;;;;;;;8.35;5.10;;;10.50;99.90;;;;;;10155349;29;20208;-86
2023/08/10 04:17:12;;;;;;;10.15;6.35;;;10.60;99.90;;;;;;10171321;29;20311;-86
2023/08/10 04:22:15;;;;;;;8.27;3.78;;;10.70;99.90;;;;;;10172250;29;20314;-86
2023/08/10 04:27:18;;;;;;;3.88;3.20;;;10.80;99.90;;;;;;10171743;29;20691;-87
2023/08/10 04:32:21;;;;;;;8.75;4.47;;;11.10;99.90;;;;;;10155643;29;20691;-86
2023/08/10 04:37:23;;;;;;;3.28;2.67;;;11.30;99.90;;;;;;10171288;29;20310;-86
2023/08/10 04:42:26;;;;;;;7.55;4.57;;;11.60;99.90;;;;;;10169982;29;20239;-86
2023/08/10 04:47:28;;;;;;;7.47;4.63;;;11.70;99.90;;;;;;10169602;29;20647;-86
2023/08/10 04:52:31;;;;;;;10.32;5.57;;;11.70;99.90;;;;;;10170347;29;20311;-87
2023/08/10 04:57:34;;;;;;;6.30;4.97;;;11.90;99.90;;;;;;10169437;29;20295;-86
2023/08/10 05:02:38;;;;;;;7.95;4.90;;;12.10;99.90;;;;;;10167650;29;20247;-86
2023/08/10 05:07:41;;;;;;;6.07;4.07;;;12.30;99.90;;;;;;10170299;29;20262;-86
2023/08/10 05:12:44;;;;;;;5.68;3.65;;;12.40;99.90;;;;;;10169514;29;20585;-86
2023/08/10 05:17:49;;;;;;;11.63;5.15;;;13.20;99.90;;;;;;10168683;29;20315;-84
2023/08/10 05:22:52;;;;;;;7.57;4.03;;;13.90;99.90;;;;;;10171242;29;20234;-86
2023/08/10 05:27:55;;;;;;;7.93;4.05;;;14.20;99.90;;;;;;10153420;29;20291;-86
2023/08/10 05:32:57;;;;;;;6.43;3.70;;;14.20;99.90;;;;;;10129826;29;20769;-86
2023/08/10 05:38:00;;;;;;;7.95;3.15;;;14.50;99.90;;;;;;10130625;29;20638;-86
2023/08/10 05:43:03;;;;;;;10.68;3.97;;;14.70;99.90;;;;;;10152804;29;20307;-86
2023/08/10 05:48:10;;;;;;;4.28;2.67;;;14.80;99.90;;;;;;10168394;29;20295;-86
2023/08/10 05:53:13;;;;;;;8.05;3.25;;;15.20;99.90;;;;;;10166328;29;20279;-86
2023/08/10 05:58:15;;;;;;;6.90;3.10;;;15.60;99.90;;;;;;10167760;29;20729;-86
2023/08/10 06:03:18;;;;;;;5.82;3.60;;;15.50;99.90;;;;;;10167587;29;20236;-86
2023/08/10 06:08:22;;;;;;;5.72;3.45;;;15.80;99.90;;;;;;10168502;29;20240;-86
2023/08/10 06:13:24;;;;;;;4.50;2.38;;;16.10;99.90;;;;;;10165626;29;20235;-86
2023/08/10 06:18:27;;;;;;;5.25;2.72;;;16.40;99.90;;;;;;10168173;29;20326;-86
2023/08/10 06:23:30;;;;;;;6.10;2.72;;;16.60;99.90;;;;;;10166111;29;20231;-86
2023/08/10 06:28:33;;;;;;;3.33;2.25;;;16.80;99.90;;;;;;10165944;29;20294;-86
2023/08/10 06:33:36;;;;;;;3.22;2.38;;;17.10;99.90;;;;;;10165768;29;20239;-85
2023/08/10 06:38:39;;;;;;;4.75;2.30;;;17.60;99.90;;;;;;10151548;29;20247;-84
2023/08/10 06:43:41;;;;;;;4.40;2.25;;;17.70;99.90;;;;;;10168709;29;20266;-85
2023/08/10 06:48:47;;;;;;;3.78;2.17;;;17.70;99.90;;;;;;10167898;29;20227;-86
2023/08/10 06:53:50;;;;;;;3.30;1.30;;;18.10;99.90;;;;;;10164695;29;20958;-86
2023/08/10 06:58:52;;;;;;;2.95;2.00;;;18.00;99.90;;;;;;10167058;29;20296;-87
2023/08/10 07:03:58;;;;;;;2.92;1.23;;;18.40;99.90;;;;;;10165611;29;20306;-87
2023/08/10 07:09:00;;;;;;;4.18;1.85;;;18.30;99.50;;;;;;10151757;29;20279;-87
2023/08/10 07:14:03;;;;;;;4.80;1.70;;;18.30;99.90;;;;;;10166513;29;20239;-87
2023/08/10 07:19:06;;;;;;;3.03;2.03;;;18.40;99.90;;;;;;10165831;29;20259;-87
2023/08/10 07:24:08;;;;;;;2.67;1.95;;;18.50;99.90;;;;;;10167168;29;20235;-87
2023/08/10 07:29:11;;;;;;;4.30;1.67;;;18.80;99.90;;;;;;10173233;29;20279;-86
2023/08/10 07:34:13;;;;;;;2.00;1.73;;;19.00;99.10;;;;;;10174591;29;20242;-87
2023/08/10 07:39:16;;;;;;;3.72;2.45;;;19.30;99.90;;;;;;10174063;29;20247;-87
2023/08/10 07:44:19;;;;;;;3.35;2.05;;;19.50;99.90;;;;;;10173136;29;20285;-87
2023/08/10 07:49:21;;;;;;;2.78;1.45;;;19.70;99.90;;;;;;10174420;29;20300;-87
2023/08/10 07:54:25;;;;;;;2.05;1.52;;;19.90;99.10;;;;;;10172428;29;20267;-86
2023/08/10 07:59:28;;;;;;;4.07;1.92;;;20.00;96.90;;;;;;10170873;29;20259;-88
2023/08/10 08:04:30;;;;;;;1.75;1.52;;;20.10;98.50;;;;;;10170563;29;20224;-86
2023/08/10 08:09:33;;;;;;;3.80;1.50;;;20.10;97.10;;;;;;10156920;29;20255;-88
2023/08/10 08:14:36;;;;;;;3.90;1.45;;;20.20;95.60;;;;;;10172200;29;20318;-88
2023/08/10 08:19:38;;;;;;;3.28;2.00;;;20.20;93.90;;;;;;10155841;29;20259;-87
2023/08/10 08:24:41;;;;;;;3.25;1.55;;;20.50;98.70;;;;;;10154996;29;20294;-87
2023/08/10 08:29:44;;;;;;;5.03;1.80;;;20.60;93.10;;;;;;10164028;29;20828;-87
2023/08/10 08:34:46;;;;;;;2.88;1.90;;;20.70;91.60;;;;;;10172451;29;20290;-86
2023/08/10 08:39:49;;;;;;;2.42;1.58;;;20.90;96.30;;;;;;10154035;29;20655;-87
2023/08/10 08:44:52;;;;;;;2.33;1.88;;;21.00;92.60;;;;;;10171743;29;20934;-87
2023/08/10 08:49:55;;;;;;;2.75;2.05;;;21.10;98.20;;;;;;10183604;29;20254;-85
2023/08/10 08:54:58;;;;;;;4.30;1.77;;;21.00;96.80;;;;;;10170656;29;20713;-89
2023/08/10 09:00:01;;;;;;;3.03;1.95;;;21.20;96.60;;;;;;10169707;29;20259;-89
2023/08/10 09:05:04;;;;;;;2.50;1.48;;;21.30;97.10;;;;;;10170033;29;20239;-88
2023/08/10 09:10:08;;;;;;;1.88;1.63;;;21.30;94.30;;;;;;10169151;29;20239;-88
2023/08/10 09:15:18;;;;;;;3.28;1.55;;;21.30;95.10;;;;;;10148509;29;20232;-87
2023/08/10 09:20:23;;;;;;;2.17;1.70;;;21.30;83.50;;;;;;10124138;29;20307;-88
2023/08/10 09:25:33;;;;;;;1.52;1.05;;;21.20;95.50;;;;;;10136405;29;20251;-85
2023/08/10 09:30:36;;;;;;;12.38;2.20;;;21.20;96.50;;;;;;10169141;29;20247;-85
2023/08/10 09:35:45;;;;;;;7.45;1.45;;;20.90;83.90;;;;;;10148878;29;20268;-85
2023/08/10 09:41:14;;;;;;;1.60;0.95;;;21.00;88.00;;;;;;10143396;29;20251;-84
2023/08/10 09:46:17;;;;;;;3.67;1.42;;;21.10;81.50;;;;;;10129220;29;20311;-84
2023/08/10 09:51:19;;;;;;;2.42;1.50;;;21.00;67.90;;;;;;10141224;29;20259;-85
2023/08/10 09:56:22;;;;;;;2.25;1.02;;;20.90;69.30;;;;;;10155650;29;20282;-88
2023/08/10 10:01:25;;;;;;;2.58;1.27;;;21.10;71.40;;;;;;10148949;29;20631;-84
2023/08/10 10:06:30;;;;;;;4.65;1.20;;;21.00;62.60;;;;;;10167864;29;20654;-84
2023/08/10 10:11:33;;;;;;;4.78;1.40;;;20.60;56.30;;;;;;10149133;29;20717;-87
2023/08/10 10:16:35;;;;;;;3.80;0.90;;;20.30;55.90;;;;;;10129890;29;20315;-85
2023/08/10 10:21:38;;;;;;;2.45;1.17;;;20.20;61.50;;;;;;10145401;29;20261;-85
2023/08/10 10:27:00;;;;;;;2.17;1.02;;;20.50;70.50;;;;;;10152029;29;20715;-86
2023/08/10 10:32:21;;;;;;;4.95;1.30;;;20.80;63.40;;;;;;10151782;29;20661;-86
2023/08/10 10:37:27;;;;;;;4.70;1.92;;;20.70;51.00;;;;;;10156514;29;20255;-85
2023/08/10 10:42:32;;;;;;;1.27;1.00;;;20.60;56.10;;;;;;10146400;29;20699;-85
2023/08/10 10:47:39;;;;;;;3.08;1.20;;;20.60;63.60;;;;;;10153983;29;20256;-85
2023/08/10 10:52:55;;;;;;;2.88;1.15;;;20.60;60.40;;;;;;10151216;29;20287;-85
2023/08/10 10:57:58;;;;;;;2.83;1.13;;;20.50;58.90;;;;;;10133119;29;20264;-84
2023/08/10 11:03:09;;;;;;;1.70;1.10;;;20.70;71.20;;;;;;10128637;29;20653;-84
2023/08/10 11:08:14;;;;;;;2.70;1.40;;;21.20;64.30;;;;;;10166011;29;20247;-85
2023/08/10 11:13:18;;;;;;;3.05;1.27;;;21.40;60.90;;;;;;10166631;29;20231;-85
2023/08/10 11:18:20;;;;;;;1.30;0.95;;;21.60;55.40;;;;;;10149669;29;20314;-86
2023/08/10 11:23:25;;;;;;;2.80;1.48;;;21.80;47.50;;;;;;10166067;29;20298;-86
2023/08/10 11:28:28;;;;;;;2.65;1.15;;;21.50;38.50;;;;;;10148986;29;20306;-86
2023/08/10 11:33:31;;;;;;;1.25;0.88;;;21.50;45.80;;;;;;10165948;29;20239;-86
2023/08/10 11:38:45;;;;;;;3.08;1.10;;;21.40;50.10;;;;;;10163493;29;20267;-86
2023/08/10 11:43:48;;;;;;;3.35;1.00;;;21.50;61.00;;;;;;10165424;29;20309;-85
2023/08/10 11:48:51;;;;;;;3.03;1.30;;;21.40;65.40;;;;;;10151668;29;20735;-85
2023/08/10 11:53:54;;;;;;;1.20;1.10;;;21.40;60.90;;;;;;10163843;29;20259;-85
2023/08/10 11:58:56;;;;;;;2.08;1.30;;;21.30;57.60;;;;;;10166326;29;20251;-85
2023/08/10 12:04:01;;;;;;;1.38;1.27;;;21.10;70.90;;;;;;10165357;29;20264;-86
2023/08/10 12:09:10;;;;;;;2.15;1.00;;;21.00;69.40;;;;;;10166903;29;20239;-86
2023/08/10 12:14:13;;;;;;;2.15;1.38;;;20.90;74.20;;;;;;10169204;29;20232;-86
2023/08/10 12:19:15;;;;;;;4.53;1.05;;;20.80;72.20;;;;;;10173529;29;20251;-87
2023/08/10 12:24:19;;;;;;;1.60;1.13;;;20.90;66.50;;;;;;10173299;29;20287;-90
2023/08/10 12:29:21;;;;;;;1.75;1.27;;;21.00;72.20;;;;;;10171755;29;20310;-89
2023/08/10 12:34:25;;;;;;;2.58;1.65;;;20.80;63.50;;;;;;10155352;29;20276;-90
2023/08/10 12:39:31;;;;;;;3.08;1.73;;;21.00;72.60;;;;;;10171045;29;20251;-89
2023/08/10 12:44:34;;;;;;;3.17;2.30;;;21.00;81.00;;;;;;10172512;29;20658;-90
2023/08/10 12:49:38;;;;;;;3.47;1.13;;;21.10;80.60;;;;;;10169497;29;20247;-85
2023/08/10 12:54:41;;;;;;;1.50;1.02;;;21.20;81.10;;;;;;10168803;29;20699;-85
2023/08/10 12:59:43;;;;;;;3.08;1.88;;;21.10;69.00;;;;;;10169647;29;20710;-86
2023/08/10 13:04:46;;;;;;;1.70;1.00;;;21.10;75.90;;;;;;10170902;29;20618;-85
2023/08/10 13:09:49;;;;;;;1.65;1.17;;;21.30;80.30;;;;;;10170577;29;20236;-84
2023/08/10 13:14:52;;;;;;;1.98;1.00;;;21.50;70.00;;;;;;10170794;29;20235;-84
2023/08/10 13:19:58;;;;;;;1.20;1.02;;;21.60;64.70;;;;;;10168494;29;20283;-84
2023/08/10 13:25:03;;;;;;;1.10;1.00;;;21.80;75.80;;;;;;10168832;29;20271;-84
2023/08/10 13:30:07;;;;;;;1.42;1.00;;;21.80;66.30;;;;;;10170408;29;20239;-85
2023/08/10 13:35:09;;;;;;;3.13;1.58;;;22.00;64.50;;;;;;10170415;29;20674;-84
2023/08/10 13:40:13;;;;;;;2.05;1.50;;;21.90;54.40;;;;;;10168559;29;20267;-85
2023/08/10 13:45:15;;;;;;;3.13;1.48;;;21.90;46.80;;;;;;10155408;29;20232;-85
2023/08/10 13:50:18;;;;;;;4.95;1.70;;;21.90;46.50;;;;;;10168648;29;20267;-85
2023/08/10 13:55:20;;;;;;;3.90;1.38;;;21.90;43.10;;;;;;10168827;29;20274;-85
2023/08/10 14:00:24;;;;;;;1.70;1.58;;;21.70;41.60;;;;;;10165331;29;20782;-84
2023/08/10 14:05:28;;;;;;;2.90;1.60;;;21.80;40.60;;;;;;10168436;29;20223;-84
2023/08/10 14:10:31;;;;;;;3.53;1.70;;;21.80;44.10;;;;;;10150411;29;20231;-86
2023/08/10 14:15:33;;;;;;;2.15;1.17;;;21.80;48.50;;;;;;10168057;29;20242;-85
2023/08/10 14:20:36;;;;;;;2.53;1.08;;;21.80;48.00;;;;;;10168083;29;20715;-85
2023/08/10 14:25:38;;;;;;;2.70;1.38;;;22.00;61.50;;;;;;10151819;29;20239;-85
2023/08/10 14:30:41;;;;;;;8.32;1.63;;;22.00;58.10;;;;;;10167516;29;20286;-84
2023/08/10 14:35:43;;;;;;;3.45;1.45;;;21.80;47.50;;;;;;10128512;29;20277;-85
2023/08/10 14:40:46;;;;;;;2.80;1.10;;;21.60;54.30;;;;;;10141883;29;20310;-85
2023/08/10 14:45:48;;;;;;;2.55;1.60;;;21.70;69.90;;;;;;10166190;29;20307;-85
2023/08/10 14:50:51;;;;;;;3.15;1.52;;;21.60;73.50;;;;;;10161198;29;20718;-85
2023/08/10 14:55:54;;;;;;;4.30;1.50;;;21.70;62.30;;;;;;10127007;29;20251;-85
2023/08/10 15:00:56;;;;;;;1.30;1.20;;;21.60;53.60;;;;;;10128276;29;20260;-85
2023/08/10 15:06:04;;;;;;;2.95;2.13;;;21.40;52.10;;;;;;10153275;29;20239;-85
2023/08/10 15:11:08;;;;;;;1.23;1.05;;;21.40;46.90;;;;;;10116112;29;20283;-84
2023/08/10 15:16:10;;;;;;;3.75;1.85;;;21.60;65.80;;;;;;10126596;29;20240;-85
2023/08/10 15:21:13;;;;;;;1.65;1.10;;;21.60;52.50;;;;;;10111529;29;20256;-85
2023/08/10 15:26:16;;;;;;;4.55;1.27;;;21.50;54.40;;;;;;10126865;29;20243;-85
2023/08/10 15:31:18;;;;;;;2.55;1.30;;;21.40;56.10;;;;;;10127142;29;20228;-84
2023/08/10 15:36:21;;;;;;;2.65;1.40;;;21.40;59.10;;;;;;10126827;29;20287;-85
2023/08/10 15:41:23;;;;;;;3.58;1.50;;;21.50;59.20;;;;;;10127937;29;20307;-86
2023/08/10 15:46:26;;;;;;;2.25;1.33;;;21.30;49.30;;;;;;9798678;29;10000499;-85
2023/08/10 15:51:29;;;;;;;2.40;1.67;;;21.30;48.30;;;;;;10144162;29;20786;-86
2023/08/10 15:56:32;;;;;;;1.63;1.48;;;21.30;60.80;;;;;;10170896;29;20256;-85
2023/08/10 16:01:34;;;;;;;3.00;1.50;;;21.20;65.10;;;;;;10170631;29;20651;-86
2023/08/10 16:06:38;;;;;;;5.07;1.40;;;21.00;65.00;;;;;;10170756;29;20227;-86
2023/08/10 16:11:41;;;;;;;4.88;1.27;;;20.80;64.90;;;;;;10169811;29;20310;-87
2023/08/10 16:16:43;;;;;;;3.80;1.60;;;20.60;61.40;;;;;;10170736;29;20243;-86
2023/08/10 16:21:46;;;;;;;2.80;1.92;;;20.60;64.60;;;;;;10169339;29;20267;-86
2023/08/10 16:26:48;;;;;;;2.63;1.42;;;20.60;67.70;;;;;;10169952;29;20228;-86
2023/08/10 16:31:51;;;;;;;1.80;0.98;;;20.50;73.00;;;;;;10168441;29;20247;-86
2023/08/10 16:36:54;;;;;;;1.90;1.40;;;20.40;77.20;;;;;;10168578;29;20246;-85
2023/08/10 16:41:56;;;;;;;4.50;1.35;;;20.40;78.10;;;;;;10170240;29;20734;-85
2023/08/10 16:46:59;;;;;;;2.70;1.48;;;20.40;82.60;;;;;;10143237;29;20659;-85
2023/08/10 16:52:02;;;;;;;1.80;1.50;;;20.50;76.60;;;;;;10148606;29;20322;-86
2023/08/10 16:57:04;;;;;;;5.25;2.47;;;20.60;74.50;;;;;;10155705;29;20287;-86
2023/08/10 17:02:07;;;;;;;2.78;1.58;;;20.50;60.80;;;;;;10165507;29;20262;-86
2023/08/10 17:07:10;;;;;;;1.33;1.23;;;20.40;72.50;;;;;;10158110;29;20678;-85
2023/08/10 17:12:12;;;;;;;4.32;1.52;;;20.30;61.30;;;;;;10162829;29;20635;-86
2023/08/10 17:17:15;;;;;;;4.13;1.75;;;20.30;62.60;;;;;;10170396;29;20246;-86
2023/08/10 17:22:18;;;;;;;3.28;1.40;;;20.40;63.20;;;;;;10169022;29;20294;-85
2023/08/10 17:27:22;;;;;;;3.58;1.40;;;20.30;69.50;;;;;;10162372;29;20636;-86
2023/08/10 17:32:26;;;;;;;1.85;1.30;;;20.20;69.40;;;;;;10167605;29;20236;-85
2023/08/10 17:37:29;;;;;;;7.82;1.90;;;20.00;68.90;;;;;;10148876;29;20231;-86
2023/08/10 17:42:32;;;;;;;2.50;1.20;;;19.70;59.40;;;;;;10161074;29;20272;-86
2023/08/10 17:47:37;;;;;;;4.47;1.50;;;19.50;67.50;;;;;;10159688;29;20654;-85
2023/08/10 17:52:40;;;;;;;2.83;1.58;;;19.30;69.20;;;;;;10146418;29;20314;-85
2023/08/10 17:57:43;;;;;;;3.15;1.77;;;19.00;69.90;;;;;;10166296;29;20239;-85
2023/08/10 18:02:45;;;;;;;3.95;2.08;;;18.80;74.50;;;;;;10135717;29;20669;-85
2023/08/10 18:07:48;;;;;;;2.13;1.90;;;18.50;81.00;;;;;;10128381;29;20287;-85
2023/08/10 18:12:54;;;;;;;4.32;2.05;;;18.20;86.60;;;;;;10170061;29;20286;-85
2023/08/10 18:17:57;;;;;;;4.80;2.10;;;17.90;91.80;;;;;;10168007;29;20235;-85
2023/08/10 18:23:00;;;;;;;5.28;2.75;;;17.70;95.60;;;;;;10167578;29;20262;-85
2023/08/10 18:28:04;;;;;;;7.63;2.55;;;17.40;97.00;;;;;;10150428;29;20243;-85
2023/08/10 18:33:06;;;;;;;5.88;2.22;;;17.20;98.70;;;;;;10171076;29;20628;-85
2023/08/10 18:38:09;;;;;;;7.13;2.33;;;17.00;99.90;;;;;;10167085;29;20302;-84
2023/08/10 18:43:12;;;;;;;4.35;2.40;;;16.80;99.90;;;;;;10167047;29;20267;-84
2023/08/10 18:48:15;;;;;;;7.80;2.67;;;16.60;99.90;;;;;;10166432;29;20239;-84
2023/08/10 18:53:17;;;;;;;3.95;2.38;;;16.50;99.90;;;;;;10166341;29;20259;-84
2023/08/10 18:58:20;;;;;;;3.10;1.38;;;16.30;99.90;;;;;;10166545;29;20687;-84
2023/08/10 19:03:25;;;;;;;2.15;1.75;;;16.20;99.90;;;;;;10165739;29;20721;-85
2023/08/10 19:08:27;;;;;;;8.18;2.47;;;16.10;99.90;;;;;;10164062;29;20283;-84
2023/08/10 19:13:30;;;;;;;7.90;3.22;;;15.90;99.90;;;;;;10166506;29;20275;-85
2023/08/10 19:18:36;;;;;;;9.25;3.33;;;15.60;99.90;;;;;;10166627;29;20298;-84
2023/08/10 19:23:38;;;;;;;8.40;4.03;;;15.20;99.90;;;;;;10150943;29;20262;-87
2023/08/10 19:28:41;;;;;;;5.68;3.35;;;15.20;99.90;;;;;;10173010;29;20227;-86
2023/08/10 19:33:44;;;;;;;8.35;3.92;;;15.20;99.90;;;;;;10173201;29;20231;-88
2023/08/10 19:38:46;;;;;;;8.13;3.60;;;15.30;99.90;;;;;;10172806;29;20235;-88
2023/08/10 19:43:50;;;;;;;3.97;2.47;;;15.40;99.90;;;;;;10173483;29;20267;-87
2023/08/10 19:48:52;;;;;;;4.20;2.80;;;15.40;99.90;;;;;;10173059;29;20266;-87
2023/08/10 19:53:55;;;;;;;6.35;3.92;;;15.60;99.90;;;;;;10167358;29;20659;-85
2023/08/10 19:58:57;;;;;;;8.30;5.65;;;15.70;99.90;;;;;;10169575;29;20231;-85
2023/08/10 20:04:00;;;;;;;13.38;10.40;;;15.80;99.90;;;;;;10151089;29;20236;-85
2023/08/10 20:09:03;;;;;;;12.70;6.85;;;15.30;99.90;;;;;;10171662;29;20291;-85
2023/08/10 20:14:06;;;;;;;8.75;5.50;;;15.00;99.90;;;;;;10150986;29;20486;-84
2023/08/10 20:19:09;;;;;;;8.15;5.70;;;15.30;99.90;;;;;;10171774;29;20224;-84
2023/08/10 20:24:11;;;;;;;5.40;4.15;;;16.30;99.90;;;;;;10171122;29;20951;-84
2023/08/10 20:29:14;;;;;;;6.50;4.65;;;16.90;99.90;;;;;;10171493;29;20227;-84
2023/08/10 20:34:17;;;;;;;8.63;4.20;;;17.00;99.90;;;;;;10154786;29;20605;-84
2023/08/10 20:39:20;;;;;;;6.65;3.70;;;17.20;99.90;;;;;;10167835;29;21212;-83
2023/08/10 20:44:22;;;;;;;9.05;4.82;;;17.30;99.90;;;;;;10169237;29;20741;-84
2023/08/10 20:49:25;;;;;;;25.35;19.73;;;17.20;99.90;;;;;;10170651;29;20212;-85
2023/08/10 20:54:29;;;;;;;23.63;16.65;;;17.20;99.90;;;;;;10167541;29;20757;-84
2023/08/10 20:59:34;;;;;;;11.20;8.75;;;17.10;99.90;;;;;;10166868;29;20255;-86
2023/08/10 21:04:37;;;;;;;12.05;6.18;;;17.10;99.90;;;;;;10168054;29;20917;-83
2023/08/10 21:09:40;;;;;;;11.02;6.68;;;15.90;99.90;;;;;;10170467;29;20270;-83
2023/08/10 21:14:43;;;;;;;7.78;5.72;;;15.60;99.90;;;;;;10169996;29;20251;-83
2023/08/10 21:19:45;;;;;;;9.40;5.05;;;14.60;99.90;;;;;;10169636;29;20251;-84
2023/08/10 21:24:48;;;;;;;8.13;6.60;;;14.50;99.90;;;;;;10169494;29;20239;-84
2023/08/10 21:29:51;;;;;;;7.13;5.05;;;14.40;99.90;;;;;;10170480;29;20702;-84
2023/08/10 21:34:53;;;;;;;6.45;5.35;;;14.40;99.90;;;;;;10169470;29;20299;-84
2023/08/10 21:39:56;;;;;;;7.57;4.68;;;14.40;99.90;;;;;;10167821;29;20740;-85
2023/08/10 21:44:58;;;;;;;7.63;3.38;;;14.40;99.90;;;;;;10169024;29;20286;-86
2023/08/10 21:50:01;;;;;;;9.82;5.20;;;14.40;99.90;;;;;;10167156;29;20239;-85
2023/08/10 21:55:09;;;;;;;6.35;4.47;;;14.40;99.90;;;;;;10168259;29;20310;-86
2023/08/10 22:00:14;;;;;;;7.10;4.95;;;14.30;99.90;;;;;;10168243;29;20393;-86
2023/08/10 22:05:17;;;;;;;7.35;3.47;;;14.30;99.90;;;;;;10168875;29;20239;-86
2023/08/10 22:10:21;;;;;;;4.05;3.13;;;14.40;99.90;;;;;;10168625;29;20313;-86
2023/08/10 22:15:24;;;;;;;11.13;4.28;;;14.20;99.90;;;;;;10147994;29;20243;-86
2023/08/10 22:20:27;;;;;;;5.68;3.42;;;14.10;99.90;;;;;;10168243;29;20259;-86
2023/08/10 22:25:31;;;;;;;5.15;4.38;;;13.80;99.90;;;;;;10168332;29;20299;-86
2023/08/10 22:30:34;;;;;;;6.68;4.00;;;13.90;99.90;;;;;;10167645;29;20239;-86
2023/08/10 22:35:37;;;;;;;5.13;3.67;;;13.90;99.90;;;;;;10168432;29;20287;-86
2023/08/10 22:40:39;;;;;;;5.13;4.38;;;13.70;99.90;;;;;;10167039;29;20267;-86
2023/08/10 22:45:42;;;;;;;12.35;3.88;;;13.90;99.90;;;;;;10166193;29;20235;-86
2023/08/10 22:50:45;;;;;;;6.18;5.57;;;13.80;99.90;;;;;;10165353;29;20279;-86
2023/08/10 22:55:49;;;;;;;4.95;3.53;;;13.90;99.90;;;;;;10165556;29;20310;-85
2023/08/10 23:00:52;;;;;;;6.70;3.63;;;14.00;99.90;;;;;;10164901;29;20259;-86
2023/08/10 23:05:54;;;;;;;5.97;4.53;;;14.10;99.90;;;;;;10166204;29;20231;-86
2023/08/10 23:10:57;;;;;;;4.07;3.55;;;13.90;99.90;;;;;;10164798;29;20695;-86
2023/08/10 23:16:00;;;;;;;6.90;4.88;;;13.90;99.90;;;;;;10166211;29;21002;-86
2023/08/10 23:21:03;;;;;;;4.63;4.00;;;13.80;99.90;;;;;;10166419;29;20634;-86
2023/08/10 23:26:05;;;;;;;5.20;3.17;;;13.80;99.90;;;;;;10149381;29;20243;-86
2023/08/10 23:31:08;;;;;;;5.68;3.38;;;13.60;99.90;;;;;;10166358;29;20743;-86
2023/08/10 23:36:11;;;;;;;4.88;3.65;;;13.70;99.90;;;;;;10166732;29;20279;-86
2023/08/10 23:41:14;;;;;;;4.15;3.30;;;13.50;99.90;;;;;;10164152;29;20667;-86
2023/08/10 23:46:16;;;;;;;5.25;3.30;;;13.40;99.90;;;;;;10165180;29;20597;-86
2023/08/10 23:51:19;;;;;;;6.43;3.67;;;13.30;99.90;;;;;;10165770;29;20713;-86
2023/08/10 23:56:22;;;;;;;4.68;3.17;;;13.10;99.90;;;;;;10166109;29;20641;-86
